Pinos Puente, Spain
Current Conditions -  °F | °C
As of 4:30 PM on Saturday 22 Nov 2014 (Local Time) from LEGR Reporting Station
Scattered Clouds Scattered Clouds  
Wind Chill: 24°   Ceiling: Unl
Heat Index: 24°   Visibility: 6mi
Dew Point:   Wind: 12mph
Humidity: 22%   Direction: 160°SSE
Pressure: 29.77"   Gusts: NA
Location:  37.25°N, 3.75°W
Report Text: LEGR 221530Z 16010KT 130V210 9999 FEW050 SCT100 24/01 Q1008
Loading
Personal Weather Stations






























Interactive Weather Map New forecast layout! Learn more

10-Day Weather Forecast

Advertisements
Track Severe Weather on mobile